Time;durP1;ratioP1;P1;durP2;ratioP2;P2;SDS_P1;SDS_P2;PMS_P1;PMS_P2;Temp;Humidity;BMP_temperature;BMP_pressure;BME280_temperature;BME280_humidity;BME280_pressure;Samples;Min_cycle;Max_cycle;Signal;HPM_P1;HPM_P2
2022/09/05 00:02:36;;;;;;;;;;;18.40;99.90;;;;;;5042464;28;20394;-84
2022/09/05 00:05:08;;;;;;;;;;;18.50;99.90;;;;;;5054240;28;19920;-73
2022/09/05 00:07:38;;;;;;;;;;;18.50;99.90;;;;;;5054311;28;19909;-73
2022/09/05 00:10:04;;;;;;;;;;;18.50;99.90;;;;;;5065318;28;20260;-84
2022/09/05 00:12:30;;;;;;;;;;;18.50;99.90;;;;;;5053294;28;19915;-73
2022/09/05 00:15:17;;;;;;;;;;;18.50;99.90;;;;;;5051369;28;19916;-73
2022/09/05 00:18:01;;;;;;;;;;;18.40;99.90;;;;;;5049690;28;19909;-83
2022/09/05 00:20:45;;;;;;;;;;;18.40;99.90;;;;;;5053714;28;19916;-73
2022/09/05 00:23:16;;;;;;;;;;;18.50;99.90;;;;;;5053743;28;19919;-84
2022/09/05 00:25:44;;;;;;;;;;;18.60;99.90;;;;;;5061614;28;20366;-74
2022/09/05 00:28:29;;;;;;;;;;;18.70;99.90;;;;;;5054468;28;19912;-84
2022/09/05 00:31:03;;;;;;;;;;;18.70;99.90;;;;;;5053552;28;20342;-85
2022/09/05 00:33:30;;;;;;;;;;;18.70;99.90;;;;;;5053346;28;19920;-73
2022/09/05 00:36:01;;;;;;;;;;;18.70;99.90;;;;;;5053454;28;19909;-73
2022/09/05 00:38:27;;;;;;;;;;;18.80;99.90;;;;;;5054070;28;19959;-85
2022/09/05 00:40:53;;;;;;;;;;;18.80;99.90;;;;;;5052867;28;19909;-85
2022/09/05 00:43:20;;;;;;;;;;;18.80;99.90;;;;;;5043105;28;19913;-85
2022/09/05 00:45:46;;;;;;;;;;;18.80;99.90;;;;;;5062117;28;19913;-74
2022/09/05 00:48:30;;;;;;;;;;;18.80;99.90;;;;;;5062198;28;19909;-73
2022/09/05 00:51:09;;;;;;;;;;;18.80;99.90;;;;;;5056951;28;20271;-85
2022/09/05 00:53:50;;;;;;;;;;;18.90;99.90;;;;;;5053412;28;19923;-85
2022/09/05 00:56:19;;;;;;;;;;;18.90;99.90;;;;;;5053528;28;19911;-73
2022/09/05 00:58:59;;;;;;;;;;;18.90;99.90;;;;;;5049416;28;19967;-73
2022/09/05 01:01:28;;;;;;;;;;;18.90;99.90;;;;;;5084602;28;19962;-74
2022/09/05 01:04:12;;;;;;;;;;;18.90;99.90;;;;;;5053149;28;20415;-74
2022/09/05 01:06:56;;;;;;;;;;;18.90;99.90;;;;;;5053014;28;19916;-74
2022/09/05 01:09:22;;;;;;;;;;;18.80;99.90;;;;;;5062558;28;19908;-73
2022/09/05 01:12:05;;;;;;;;;;;18.90;99.90;;;;;;5055051;28;19915;-84
2022/09/05 01:14:42;;;;;;;;;;;18.80;99.90;;;;;;5041926;28;20288;-74
2022/09/05 01:17:18;;;;;;;;;;;18.70;99.90;;;;;;5053566;28;19909;-85
2022/09/05 01:19:50;;;;;;;;;;;18.60;99.90;;;;;;5052018;28;19916;-84
2022/09/05 01:22:33;;;;;;;;;;;18.50;99.90;;;;;;5053309;28;19916;-85
2022/09/05 01:25:23;;;;;;;;;;;18.50;99.90;;;;;;5054417;28;19923;-74
2022/09/05 01:27:55;;;;;;;;;;;18.40;99.90;;;;;;5056849;28;19913;-74
2022/09/05 01:30:22;;;;;;;;;;;18.40;99.90;;;;;;5052689;28;20394;-85
2022/09/05 01:32:51;;;;;;;;;;;18.40;99.90;;;;;;5053079;28;19913;-85
2022/09/05 01:35:37;;;;;;;;;;;18.40;99.90;;;;;;5051692;28;20372;-74
2022/09/05 01:38:05;;;;;;;;;;;18.30;99.90;;;;;;5055890;28;20286;-74
2022/09/05 01:40:49;;;;;;;;;;;18.40;99.90;;;;;;5052559;28;19913;-74
2022/09/05 01:43:33;;;;;;;;;;;18.40;99.90;;;;;;5044234;28;19909;-85
2022/09/05 01:45:58;;;;;;;;;;;18.30;99.90;;;;;;5067868;28;19963;-85
2022/09/05 01:48:29;;;;;;;;;;;18.30;99.90;;;;;;5067065;28;19909;-84
2022/09/05 01:51:13;;;;;;;;;;;18.20;99.90;;;;;;5064603;28;19916;-74
2022/09/05 01:53:47;;;;;;;;;;;18.10;99.90;;;;;;5057116;28;19917;-73
2022/09/05 01:56:19;;;;;;;;;;;18.10;99.90;;;;;;5056642;28;19999;-84
2022/09/05 01:59:03;;;;;;;;;;;18.00;99.90;;;;;;5045060;28;19916;-85
2022/09/05 02:01:35;;;;;;;;;;;18.00;99.90;;;;;;5056229;28;19912;-85
2022/09/05 02:04:07;;;;;;;;;;;17.90;99.90;;;;;;5056957;28;19919;-73
2022/09/05 02:06:44;;;;;;;;;;;17.90;99.90;;;;;;5056723;28;19916;-85
2022/09/05 02:09:28;;;;;;;;;;;17.90;99.90;;;;;;5064289;28;19908;-73
2022/09/05 02:11:59;;;;;;;;;;;17.80;99.90;;;;;;5057270;28;20015;-85
2022/09/05 02:14:29;;;;;;;;;;;17.80;99.90;;;;;;5046777;28;19909;-74
2022/09/05 02:17:05;;;;;;;;;;;17.80;99.90;;;;;;5056343;28;20299;-74
2022/09/05 02:19:36;;;;;;;;;;;17.80;99.90;;;;;;5055921;28;19909;-74
2022/09/05 02:22:08;;;;;;;;;;;17.80;99.90;;;;;;5056421;28;19995;-85
2022/09/05 02:24:35;;;;;;;;;;;17.80;99.90;;;;;;5056158;28;20436;-85
2022/09/05 02:27:19;;;;;;;;;;;17.80;99.90;;;;;;5064833;28;19909;-74
2022/09/05 02:29:54;;;;;;;;;;;17.90;99.90;;;;;;5056014;28;19909;-73
2022/09/05 02:32:26;;;;;;;;;;;17.90;99.90;;;;;;5055812;28;19925;-74
2022/09/05 02:35:00;;;;;;;;;;;17.90;99.90;;;;;;5056196;28;19959;-85
2022/09/05 02:37:36;;;;;;;;;;;18.00;99.90;;;;;;5055970;28;20441;-85
2022/09/05 02:40:20;;;;;;;;;;;18.00;99.90;;;;;;5056181;28;19996;-85
2022/09/05 02:43:04;;;;;;;;;;;18.00;99.90;;;;;;5048989;28;20371;-73
2022/09/05 02:45:32;;;;;;;;;;;18.00;99.90;;;;;;5061776;28;19916;-73
2022/09/05 02:48:00;;;;;;;;;;;18.10;99.90;;;;;;5062538;28;20020;-85
2022/09/05 02:50:26;;;;;;;;;;;18.20;99.90;;;;;;5066436;28;19913;-84
2022/09/05 02:52:52;;;;;;;;;;;18.20;99.90;;;;;;5055620;28;20402;-83
2022/09/05 02:55:30;;;;;;;;;;;18.20;99.90;;;;;;5054608;28;19909;-73
2022/09/05 02:58:16;;;;;;;;;;;18.20;99.90;;;;;;5055201;28;19908;-73
2022/09/05 03:00:53;;;;;;;;;;;18.00;99.90;;;;;;5030757;28;19909;-73
2022/09/05 03:03:47;;;;;;;;;;;17.80;99.90;;;;;;5035851;28;19909;-80
2022/09/05 03:06:22;;;;;;;;;;;17.70;99.90;;;;;;5039335;28;19917;-80
2022/09/05 03:08:54;;;;;;;;;;;17.60;99.90;;;;;;5043909;28;20398;-80
2022/09/05 03:11:38;;;;;;;;;;;17.50;99.90;;;;;;5060839;28;19913;-72
2022/09/05 03:14:06;;;;;;;;;;;17.50;99.90;;;;;;5047922;28;19909;-81
2022/09/05 03:16:34;;;;;;;;;;;17.40;99.90;;;;;;5051810;28;19916;-81
2022/09/05 03:19:02;;;;;;;;;;;17.40;99.90;;;;;;5055099;28;20007;-81
2022/09/05 03:21:31;;;;;;;;;;;17.30;99.90;;;;;;5055044;28;19909;-72
2022/09/05 03:24:15;;;;;;;;;;;17.30;99.90;;;;;;5055008;28;19909;-73
2022/09/05 03:27:03;;;;;;;;;;;17.20;99.90;;;;;;5064350;28;20301;-72
2022/09/05 03:29:40;;;;;;;;;;;17.20;99.90;;;;;;5057487;28;19909;-81
2022/09/05 03:32:18;;;;;;;;;;;17.10;99.90;;;;;;5055042;28;20007;-73
2022/09/05 03:35:02;;;;;;;;;;;17.10;99.90;;;;;;5054750;28;19919;-81
2022/09/05 03:37:49;;;;;;;;;;;17.20;99.90;;;;;;5053522;28;19955;-73
2022/09/05 03:40:35;;;;;;;;;;;17.20;99.90;;;;;;5055043;28;19909;-81
2022/09/05 03:43:24;;;;;;;;;;;17.10;99.90;;;;;;5046347;28;19962;-76
2022/09/05 03:45:50;;;;;;;;;;;17.10;99.90;;;;;;5064291;28;19913;-81
2022/09/05 03:48:34;;;;;;;;;;;17.10;99.90;;;;;;5063764;28;20287;-73
2022/09/05 03:51:02;;;;;;;;;;;17.10;99.90;;;;;;5059363;28;19924;-72
2022/09/05 03:53:33;;;;;;;;;;;17.10;99.90;;;;;;5054796;28;19913;-81
2022/09/05 03:56:08;;;;;;;;;;;17.00;99.90;;;;;;5054741;28;19912;-72
2022/09/05 03:58:56;;;;;;;;;;;17.10;99.90;;;;;;5051856;28;19915;-72
2022/09/05 04:01:25;;;;;;;;;;;17.00;99.90;;;;;;5050048;28;19909;-72
2022/09/05 04:03:53;;;;;;;;;;;17.00;99.90;;;;;;5054504;28;19909;-72
2022/09/05 04:06:31;;;;;;;;;;;17.00;99.90;;;;;;5054164;28;19916;-82
2022/09/05 04:09:05;;;;;;;;;;;17.00;99.90;;;;;;5059717;28;19958;-82
2022/09/05 04:11:36;;;;;;;;;;;17.00;99.90;;;;;;5056886;28;19913;-82
2022/09/05 04:14:05;;;;;;;;;;;17.10;99.90;;;;;;5054005;28;19908;-72
2022/09/05 04:16:32;;;;;;;;;;;17.00;99.90;;;;;;5051675;28;19909;-72
2022/09/05 04:19:07;;;;;;;;;;;17.00;99.90;;;;;;5053090;28;19913;-82
2022/09/05 04:21:35;;;;;;;;;;;17.00;99.90;;;;;;5054034;28;19912;-72
2022/09/05 04:24:04;;;;;;;;;;;17.00;99.90;;;;;;5053737;28;20006;-73
2022/09/05 04:26:49;;;;;;;;;;;17.00;99.90;;;;;;5062375;28;19916;-73
2022/09/05 04:29:34;;;;;;;;;;;17.00;99.90;;;;;;5054041;28;20288;-72
2022/09/05 04:32:13;;;;;;;;;;;17.00;99.90;;;;;;5051793;28;20396;-72
2022/09/05 04:34:41;;;;;;;;;;;17.00;99.90;;;;;;5051048;28;19924;-81
2022/09/05 04:37:08;;;;;;;;;;;17.10;99.90;;;;;;5053420;28;19909;-73
2022/09/05 04:39:34;;;;;;;;;;;17.00;99.90;;;;;;5053497;28;19909;-72
2022/09/05 04:42:06;;;;;;;;;;;16.90;99.90;;;;;;5053514;28;19948;-83
2022/09/05 04:44:44;;;;;;;;;;;16.90;99.90;;;;;;5043335;28;19921;-83
2022/09/05 04:47:21;;;;;;;;;;;16.90;99.90;;;;;;5053344;28;19917;-72
2022/09/05 04:49:53;;;;;;;;;;;16.80;99.90;;;;;;5080824;28;19909;-82
2022/09/05 04:52:37;;;;;;;;;;;16.80;99.90;;;;;;5054151;28;20328;-72
2022/09/05 04:55:15;;;;;;;;;;;16.80;99.90;;;;;;5053501;28;20001;-73
2022/09/05 04:57:55;;;;;;;;;;;16.80;99.90;;;;;;5053154;28;20402;-73
2022/09/05 05:00:24;;;;;;;;;;;16.80;99.90;;;;;;5045350;28;19909;-82
2022/09/05 05:02:51;;;;;;;;;;;16.80;99.90;;;;;;5053716;28;20341;-83
2022/09/05 05:05:25;;;;;;;;;;;16.70;99.90;;;;;;5053221;28;19919;-72
2022/09/05 05:07:54;;;;;;;;;;;16.80;99.90;;;;;;5053253;28;19916;-72
2022/09/05 05:10:24;;;;;;;;;;;16.70;99.90;;;;;;5064716;28;19913;-83
2022/09/05 05:12:58;;;;;;;;;;;16.80;99.90;;;;;;5052826;28;19944;-72
2022/09/05 05:15:26;;;;;;;;;;;16.70;99.90;;;;;;5049483;28;19909;-83
2022/09/05 05:17:59;;;;;;;;;;;16.80;99.90;;;;;;5052951;28;19909;-83
2022/09/05 05:20:31;;;;;;;;;;;16.70;99.90;;;;;;5052766;28;19909;-72
2022/09/05 05:23:06;;;;;;;;;;;16.70;99.90;;;;;;5052763;28;19952;-83
2022/09/05 05:25:33;;;;;;;;;;;16.70;99.90;;;;;;5058895;28;19913;-83
2022/09/05 05:27:58;;;;;;;;;;;16.70;99.90;;;;;;5054906;28;20339;-83
2022/09/05 05:30:26;;;;;;;;;;;16.60;99.90;;;;;;5052896;28;19940;-83
2022/09/05 05:32:53;;;;;;;;;;;16.70;99.90;;;;;;5052787;28;19920;-72
2022/09/05 05:35:27;;;;;;;;;;;16.70;99.90;;;;;;5041768;28;19913;-73
2022/09/05 05:38:11;;;;;;;;;;;16.70;99.90;;;;;;5050969;28;19909;-72
2022/09/05 05:40:42;;;;;;;;;;;16.80;99.90;;;;;;5046867;28;19967;-73
2022/09/05 05:43:14;;;;;;;;;;;16.80;99.90;;;;;;5046295;28;19909;-83
2022/09/05 05:45:40;;;;;;;;;;;16.80;99.90;;;;;;5051315;28;19912;-83
2022/09/05 05:48:18;;;;;;;;;;;16.80;99.90;;;;;;5052160;28;19909;-72
2022/09/05 05:50:44;;;;;;;;;;;16.80;99.90;;;;;;5059124;28;19920;-72
2022/09/05 05:53:09;;;;;;;;;;;16.80;99.90;;;;;;5045319;28;20011;-83
2022/09/05 05:55:44;;;;;;;;;;;16.90;99.90;;;;;;5045284;28;19913;-84
2022/09/05 05:58:18;;;;;;;;;;;17.00;99.90;;;;;;5051555;28;20390;-72
2022/09/05 06:01:09;;;;;;;;;;;17.10;99.90;;;;;;5046408;28;19908;-72
2022/09/05 06:04:01;;;;;;;;;;;17.20;99.90;;;;;;5049257;28;20394;-83
2022/09/05 06:06:27;;;;;;;;;;;17.30;99.90;;;;;;5042952;28;19917;-73
2022/09/05 06:08:58;;;;;;;;;;;17.30;99.90;;;;;;5055374;28;20007;-83
2022/09/05 06:11:27;;;;;;;;;;;17.40;99.90;;;;;;5051225;28;19913;-82
2022/09/05 06:13:56;;;;;;;;;;;17.50;99.90;;;;;;5051832;28;20003;-83
2022/09/05 06:16:34;;;;;;;;;;;17.60;99.90;;;;;;5048775;28;19940;-83
2022/09/05 06:19:20;;;;;;;;;;;17.60;99.90;;;;;;5052008;28;20316;-73
2022/09/05 06:21:54;;;;;;;;;;;17.90;99.90;;;;;;5051205;28;19916;-73
2022/09/05 06:24:21;;;;;;;;;;;18.00;99.90;;;;;;5050776;28;19921;-72
2022/09/05 06:26:53;;;;;;;;;;;18.20;99.90;;;;;;5059552;28;19999;-72
2022/09/05 06:29:41;;;;;;;;;;;18.30;99.90;;;;;;5052102;28;19913;-82
2022/09/05 06:32:25;;;;;;;;;;;18.40;99.90;;;;;;5055394;28;19921;-73
2022/09/05 06:35:09;;;;;;;;;;;18.40;99.90;;;;;;5042580;28;19913;-83
2022/09/05 06:37:42;;;;;;;;;;;18.40;99.90;;;;;;5050781;28;19944;-72
2022/09/05 06:40:10;;;;;;;;;;;18.40;99.90;;;;;;5049626;28;19916;-73
2022/09/05 06:42:56;;;;;;;;;;;18.40;99.90;;;;;;5049714;28;19909;-83
2022/09/05 06:45:29;;;;;;;;;;;18.40;99.90;;;;;;5051326;28;19925;-83
2022/09/05 06:48:08;;;;;;;;;;;18.40;99.90;;;;;;5061499;28;20000;-83
2022/09/05 06:50:43;;;;;;;;;;;18.40;99.90;;;;;;5064673;28;19923;-73
2022/09/05 06:53:24;;;;;;;;;;;18.50;99.90;;;;;;5052041;28;19913;-73
2022/09/05 06:56:04;;;;;;;;;;;18.60;99.90;;;;;;5047941;28;20376;-73
2022/09/05 06:58:33;;;;;;;;;;;18.70;99.90;;;;;;5053545;28;19912;-83
2022/09/05 07:01:00;;;;;;;;;;;18.70;99.90;;;;;;5044122;28;19974;-84
2022/09/05 07:03:31;;;;;;;;;;;18.70;99.90;;;;;;5052034;28;19913;-72
2022/09/05 07:06:00;;;;;;;;;;;18.70;99.90;;;;;;5050232;28;19924;-73
2022/09/05 07:08:26;;;;;;;;;;;18.80;99.90;;;;;;5052987;28;19916;-83
2022/09/05 07:11:05;;;;;;;;;;;18.90;99.90;;;;;;5053198;28;19908;-84
2022/09/05 07:13:34;;;;;;;;;;;18.90;99.90;;;;;;5047904;28;19979;-83
2022/09/05 07:16:22;;;;;;;;;;;19.10;99.90;;;;;;5047774;28;20295;-73
2022/09/05 07:19:03;;;;;;;;;;;19.10;99.90;;;;;;5046411;28;19932;-74
2022/09/05 07:21:32;;;;;;;;;;;19.10;99.90;;;;;;5049515;28;19909;-82
2022/09/05 07:24:26;;;;;;;;;;;19.20;99.90;;;;;;5045539;28;19909;-73
2022/09/05 07:26:52;;;;;;;;;;;19.20;99.90;;;;;;5052603;28;19945;-83
2022/09/05 07:29:19;;;;;;;;;;;19.40;99.90;;;;;;5054098;28;19913;-73
2022/09/05 07:31:47;;;;;;;;;;;19.60;99.90;;;;;;5053753;28;20287;-83
2022/09/05 07:34:15;;;;;;;;;;;19.70;99.90;;;;;;5054313;28;19909;-83
2022/09/05 07:36:44;;;;;;;;;;;19.90;99.90;;;;;;5051827;28;19913;-74
2022/09/05 07:39:13;;;;;;;;;;;20.00;99.90;;;;;;5054028;28;20367;-74
2022/09/05 07:41:42;;;;;;;;;;;20.20;99.90;;;;;;5052922;28;19912;-73
2022/09/05 07:44:28;;;;;;;;;;;20.30;99.90;;;;;;5049873;28;19927;-73
2022/09/05 07:47:14;;;;;;;;;;;20.40;99.90;;;;;;5053198;28;19970;-73
2022/09/05 07:49:41;;;;;;;;;;;20.60;99.90;;;;;;5051401;28;19967;-82
2022/09/05 07:52:20;;;;;;;;;;;21.60;99.90;;;;;;5045766;28;20359;-83
2022/09/05 07:54:47;;;;;;;;;;;24.00;99.90;;;;;;5047184;28;19912;-74
2022/09/05 07:57:17;;;;;;;;;;;25.80;99.90;;;;;;5053358;28;19916;-83
2022/09/05 07:59:45;;;;;;;;;;;27.20;99.90;;;;;;5046913;28;20371;-83
2022/09/05 08:02:11;;;;;;;;;;;28.30;99.90;;;;;;5039789;28;19909;-84
2022/09/05 08:04:38;;;;;;;;;;;28.80;99.90;;;;;;5051617;28;20015;-74
2022/09/05 08:07:11;;;;;;;;;;;29.40;99.90;;;;;;5051998;28;19909;-82
2022/09/05 08:09:38;;;;;;;;;;;29.70;99.20;;;;;;5044955;28;20364;-74
2022/09/05 08:12:13;;;;;;;;;;;30.20;98.60;;;;;;5053188;28;19961;-74
2022/09/05 08:14:57;;;;;;;;;;;30.50;97.90;;;;;;5044734;28;19913;-74
2022/09/05 08:17:24;;;;;;;;;;;30.80;97.70;;;;;;5045411;28;19920;-83
2022/09/05 08:19:54;;;;;;;;;;;30.80;97.40;;;;;;5052319;28;20372;-74
2022/09/05 08:22:21;;;;;;;;;;;31.50;96.60;;;;;;5052346;28;20404;-75
2022/09/05 08:24:53;;;;;;;;;;;31.90;96.50;;;;;;5050661;28;19913;-83
2022/09/05 08:27:22;;;;;;;;;;;30.10;97.00;;;;;;5044634;28;20352;-84
2022/09/05 08:29:52;;;;;;;;;;;30.20;97.90;;;;;;5051867;28;20545;-82
2022/09/05 08:32:29;;;;;;;;;;;30.50;97.30;;;;;;5052968;28;19916;-83
2022/09/05 08:35:00;;;;;;;;;;;29.60;98.00;;;;;;5040300;28;19915;-74
2022/09/05 08:37:26;;;;;;;;;;;27.40;99.90;;;;;;5052925;28;19920;-83
2022/09/05 08:39:52;;;;;;;;;;;25.80;99.90;;;;;;5052699;28;19909;-78
2022/09/05 08:42:27;;;;;;;;;;;25.00;99.90;;;;;;5049329;28;20296;-83
2022/09/05 08:44:52;;;;;;;;;;;24.50;99.90;;;;;;5052296;28;20372;-84
2022/09/05 08:47:36;;;;;;;;;;;24.20;99.90;;;;;;5052943;28;20038;-74
2022/09/05 08:50:12;;;;;;;;;;;24.00;99.90;;;;;;5062001;28;20288;-74
2022/09/05 08:52:38;;;;;;;;;;;23.80;99.90;;;;;;5049802;28;19921;-84
2022/09/05 08:55:26;;;;;;;;;;;24.40;99.90;;;;;;5049980;28;19909;-84
2022/09/05 08:58:01;;;;;;;;;;;25.50;99.90;;;;;;5038698;28;19909;-83
2022/09/05 09:00:29;;;;;;;;;;;27.20;99.90;;;;;;5045026;28;19910;-74
2022/09/05 09:03:13;;;;;;;;;;;27.00;99.90;;;;;;5043895;28;19996;-74
2022/09/05 09:05:53;;;;;;;;;;;26.20;99.90;;;;;;5050225;28;19962;-85
2022/09/05 09:08:37;;;;;;;;;;;25.40;99.90;;;;;;5052241;28;20414;-76
2022/09/05 09:11:33;;;;;;;;;;;25.20;99.90;;;;;;5048461;28;19963;-75
2022/09/05 09:14:17;;;;;;;;;;;26.80;99.90;;;;;;5047399;28;19916;-74
2022/09/05 09:17:08;;;;;;;;;;;26.40;99.90;;;;;;5049588;28;19909;-75
2022/09/05 09:19:40;;;;;;;;;;;26.30;99.90;;;;;;5052171;28;20008;-84
2022/09/05 09:22:14;;;;;;;;;;;27.10;99.90;;;;;;5051367;28;19909;-83
2022/09/05 09:24:42;;;;;;;;;;;27.70;99.90;;;;;;5050152;28;19927;-75
2022/09/05 09:27:12;;;;;;;;;;;29.10;99.90;;;;;;5061060;28;19916;-75
2022/09/05 09:29:40;;;;;;;;;;;31.10;97.50;;;;;;5051816;28;19916;-85
2022/09/05 09:32:12;;;;;;;;;;;32.70;96.50;;;;;;5051255;28;19925;-82
2022/09/05 09:35:02;;;;;;;;;;;33.20;95.50;;;;;;5051680;28;19919;-73
2022/09/05 09:37:49;;;;;;;;;;;33.60;96.30;;;;;;5050358;28;20027;-82
2022/09/05 09:40:17;;;;;;;;;;;33.80;94.50;;;;;;5050110;28;20027;-73
2022/09/05 09:42:56;;;;;;;;;;;33.70;94.30;;;;;;5050573;28;19916;-83
2022/09/05 09:45:21;;;;;;;;;;;33.10;94.30;;;;;;5047496;28;19917;-73
2022/09/05 09:48:05;;;;;;;;;;;31.20;96.20;;;;;;5056042;28;19917;-85
2022/09/05 09:50:49;;;;;;;;;;;29.60;97.70;;;;;;5054683;28;19913;-85
2022/09/05 09:53:18;;;;;;;;;;;28.30;99.30;;;;;;5048700;28;19920;-75
2022/09/05 09:56:05;;;;;;;;;;;27.50;99.90;;;;;;5044744;28;19913;-76
2022/09/05 09:58:42;;;;;;;;;;;27.30;99.90;;;;;;5049204;28;20334;-85
2022/09/05 10:01:26;;;;;;;;;;;28.60;99.60;;;;;;5042385;28;19915;-84
2022/09/05 10:03:52;;;;;;;;;;;28.90;99.40;;;;;;5046526;28;19916;-85
2022/09/05 10:06:17;;;;;;;;;;;29.70;98.80;;;;;;5053259;28;19913;-76
2022/09/05 10:08:43;;;;;;;;;;;30.80;97.60;;;;;;5054166;28;19908;-84
2022/09/05 10:11:41;;;;;;;;;;;30.40;97.60;;;;;;5067493;28;19919;-85
2022/09/05 10:14:11;;;;;;;;;;;30.50;98.10;;;;;;5037645;28;19909;-83
2022/09/05 10:16:55;;;;;;;;;;;29.20;98.50;;;;;;5050223;28;20710;-85
2022/09/05 10:19:27;;;;;;;;;;;28.50;99.90;;;;;;5054295;28;19936;-75
2022/09/05 10:22:04;;;;;;;;;;;28.10;99.90;;;;;;5053881;28;19913;-75
2022/09/05 10:24:29;;;;;;;;;;;27.90;99.90;;;;;;5051467;28;20407;-84
2022/09/05 10:27:13;;;;;;;;;;;27.40;99.90;;;;;;5064231;28;19916;-84
2022/09/05 10:30:14;;;;;;;;;;;26.90;99.90;;;;;;5053920;28;20456;-85
2022/09/05 10:32:42;;;;;;;;;;;27.00;99.90;;;;;;5037022;28;19981;-76
2022/09/05 10:35:23;;;;;;;;;;;27.30;99.90;;;;;;5032685;28;19913;-83
2022/09/05 10:37:55;;;;;;;;;;;27.60;99.90;;;;;;5033356;28;19913;-84
2022/09/05 10:40:23;;;;;;;;;;;28.50;99.90;;;;;;5031397;28;19951;-84
2022/09/05 10:42:50;;;;;;;;;;;28.60;99.90;;;;;;5032397;28;19916;-76
2022/09/05 10:45:36;;;;;;;;;;;27.90;99.90;;;;;;5032016;28;20428;-84
2022/09/05 10:48:09;;;;;;;;;;;27.70;99.90;;;;;;5020222;28;19955;-84
2022/09/05 10:50:40;;;;;;;;;;;27.40;99.90;;;;;;5027782;28;19940;-75
2022/09/05 10:53:34;;;;;;;;;;;27.50;99.90;;;;;;5028568;28;19921;-76
2022/09/05 10:56:07;;;;;;;;;;;27.50;99.90;;;;;;5008103;28;19914;-83
2022/09/05 10:58:51;;;;;;;;;;;27.70;99.90;;;;;;5031572;28;19913;-85
2022/09/05 11:01:17;;;;;;;;;;;27.80;99.90;;;;;;5028540;28;20463;-76
2022/09/05 11:03:46;;;;;;;;;;;27.90;99.90;;;;;;5030527;28;20004;-84
2022/09/05 11:06:14;;;;;;;;;;;27.50;99.90;;;;;;5038004;28;19917;-80
2022/09/05 11:09:03;;;;;;;;;;;27.40;99.90;;;;;;5052256;28;19995;-74
2022/09/05 11:11:32;;;;;;;;;;;27.00;99.90;;;;;;5045840;28;19909;-76
2022/09/05 11:14:02;;;;;;;;;;;27.00;99.90;;;;;;5050623;28;19908;-82
2022/09/05 11:16:40;;;;;;;;;;;27.10;99.90;;;;;;5053002;28;19948;-82
2022/09/05 11:19:13;;;;;;;;;;;27.50;99.90;;;;;;5054573;28;19908;-83
2022/09/05 11:21:46;;;;;;;;;;;28.00;99.90;;;;;;5053550;28;20008;-76
2022/09/05 11:24:14;;;;;;;;;;;28.90;99.90;;;;;;5054062;28;21428;-76
2022/09/05 11:26:42;;;;;;;;;;;28.70;99.90;;;;;;5059042;28;19916;-84
2022/09/05 11:29:10;;;;;;;;;;;28.70;99.90;;;;;;5054103;28;19959;-84
2022/09/05 11:31:41;;;;;;;;;;;28.70;99.90;;;;;;5037092;28;20410;-82
2022/09/05 11:34:25;;;;;;;;;;;28.60;99.90;;;;;;5053686;28;20407;-85
2022/09/05 11:36:52;;;;;;;;;;;28.50;99.90;;;;;;5054025;28;19916;-76
2022/09/05 11:39:18;;;;;;;;;;;29.00;99.90;;;;;;5052790;28;20012;-76
2022/09/05 11:41:59;;;;;;;;;;;29.10;99.90;;;;;;5051503;28;20369;-85
2022/09/05 11:44:24;;;;;;;;;;;28.90;99.90;;;;;;5048667;28;20341;-85
2022/09/05 11:47:08;;;;;;;;;;;29.00;99.90;;;;;;5045927;28;19917;-85
2022/09/05 11:49:56;;;;;;;;;;;29.10;99.90;;;;;;5065499;28;19912;-77
2022/09/05 11:52:41;;;;;;;;;;;29.10;99.90;;;;;;5050958;28;19923;-76
2022/09/05 11:55:18;;;;;;;;;;;28.80;99.90;;;;;;5051828;28;19996;-83
2022/09/05 11:58:03;;;;;;;;;;;28.50;99.90;;;;;;5049452;28;19920;-86
2022/09/05 12:00:36;;;;;;;;;;;28.30;99.90;;;;;;5047187;28;19909;-85
2022/09/05 12:03:20;;;;;;;;;;;28.30;99.90;;;;;;5050115;28;20024;-74
2022/09/05 12:05:58;;;;;;;;;;;28.40;99.90;;;;;;5051759;28;19966;-83
2022/09/05 12:08:23;;;;;;;;;;;28.60;99.90;;;;;;5052822;28;20755;-82
2022/09/05 12:10:59;;;;;;;;;;;28.60;99.90;;;;;;5045896;28;20004;-83
2022/09/05 12:13:37;;;;;;;;;;;28.50;99.90;;;;;;5048452;28;20372;-82
2022/09/05 12:16:17;;;;;;;;;;;28.30;99.90;;;;;;5051801;28;19909;-75
2022/09/05 12:18:45;;;;;;;;;;;28.60;99.80;;;;;;5040275;28;20295;-84
2022/09/05 12:21:11;;;;;;;;;;;28.80;99.30;;;;;;5052394;28;19908;-84
2022/09/05 12:23:43;;;;;;;;;;;28.80;98.90;;;;;;5050776;28;19909;-84
2022/09/05 12:26:14;;;;;;;;;;;28.60;99.00;;;;;;5060584;28;19966;-84
2022/09/05 12:28:44;;;;;;;;;;;28.70;98.00;;;;;;5042525;28;20464;-83
2022/09/05 12:31:12;;;;;;;;;;;28.70;98.10;;;;;;5046964;28;20392;-84
2022/09/05 12:33:42;;;;;;;;;;;28.70;98.50;;;;;;5052085;28;19912;-84
2022/09/05 12:36:13;;;;;;;;;;;28.90;98.00;;;;;;5047736;28;20015;-85
2022/09/05 12:38:43;;;;;;;;;;;28.70;97.70;;;;;;5052664;28;19913;-82
2022/09/05 12:41:14;;;;;;;;;;;28.50;96.70;;;;;;5049914;28;19909;-74
2022/09/05 12:43:48;;;;;;;;;;;28.40;97.80;;;;;;5051907;28;20303;-74
2022/09/05 12:46:20;;;;;;;;;;;28.10;97.10;;;;;;5051752;28;20308;-74
2022/09/05 12:48:55;;;;;;;;;;;28.30;97.00;;;;;;5062644;28;19919;-84
2022/09/05 12:51:22;;;;;;;;;;;28.40;96.80;;;;;;5048651;28;20003;-81
2022/09/05 12:53:56;;;;;;;;;;;28.30;96.30;;;;;;5049710;28;19924;-74
2022/09/05 12:56:25;;;;;;;;;;;28.30;94.20;;;;;;5050572;28;19995;-75
2022/09/05 12:58:52;;;;;;;;;;;28.50;95.10;;;;;;5051813;28;19912;-74
2022/09/05 13:01:18;;;;;;;;;;;28.50;94.50;;;;;;5038655;28;19913;-84
2022/09/05 13:03:46;;;;;;;;;;;28.30;95.00;;;;;;5050382;28;20334;-84
2022/09/05 13:06:18;;;;;;;;;;;28.40;95.50;;;;;;5052067;28;19913;-74
2022/09/05 13:08:46;;;;;;;;;;;28.50;93.80;;;;;;5050586;28;19916;-83
2022/09/05 13:11:14;;;;;;;;;;;28.50;93.40;;;;;;5044601;28;20028;-84
2022/09/05 13:13:47;;;;;;;;;;;28.80;93.30;;;;;;5051045;28;19962;-74
2022/09/05 13:16:19;;;;;;;;;;;28.80;93.00;;;;;;5050483;28;20271;-77
2022/09/05 13:18:45;;;;;;;;;;;28.80;92.30;;;;;;5043652;28;19917;-82
2022/09/05 13:21:24;;;;;;;;;;;28.50;92.00;;;;;;5045441;28;19917;-80
2022/09/05 13:23:53;;;;;;;;;;;28.20;92.20;;;;;;5042247;28;19917;-83
2022/09/05 13:26:32;;;;;;;;;;;28.40;93.00;;;;;;5059035;28;19971;-76
2022/09/05 13:29:01;;;;;;;;;;;28.50;92.50;;;;;;5051240;28;19920;-81
2022/09/05 13:31:39;;;;;;;;;;;28.40;93.00;;;;;;5048964;28;20011;-83
2022/09/05 13:34:10;;;;;;;;;;;28.20;93.50;;;;;;5051168;28;20127;-75
2022/09/05 13:36:43;;;;;;;;;;;28.30;94.10;;;;;;5051362;28;19995;-83
2022/09/05 13:39:12;;;;;;;;;;;28.20;93.30;;;;;;5050761;28;19908;-83
2022/09/05 13:41:42;;;;;;;;;;;27.90;94.20;;;;;;5055112;28;19955;-84
2022/09/05 13:44:10;;;;;;;;;;;28.00;94.60;;;;;;5049517;28;20422;-83
2022/09/05 13:46:37;;;;;;;;;;;28.00;94.50;;;;;;5043806;28;19924;-74
2022/09/05 13:49:05;;;;;;;;;;;28.40;95.30;;;;;;5054665;28;19909;-74
2022/09/05 13:51:35;;;;;;;;;;;28.10;95.30;;;;;;5055844;28;20369;-84
2022/09/05 13:54:04;;;;;;;;;;;28.20;95.90;;;;;;5051649;28;19916;-81
2022/09/05 13:56:31;;;;;;;;;;;27.70;95.70;;;;;;5054630;28;19955;-73
2022/09/05 13:59:05;;;;;;;;;;;27.60;96.30;;;;;;5052478;28;19913;-74
2022/09/05 14:01:44;;;;;;;;;;;27.60;97.10;;;;;;5041094;28;20001;-73
2022/09/05 14:04:22;;;;;;;;;;;27.80;96.70;;;;;;5043310;28;19916;-83
2022/09/05 14:06:50;;;;;;;;;;;27.30;97.30;;;;;;5053114;28;20295;-79
2022/09/05 14:09:25;;;;;;;;;;;27.00;97.50;;;;;;5050543;28;19910;-85
2022/09/05 14:11:54;;;;;;;;;;;27.00;98.10;;;;;;5050665;28;19920;-74
2022/09/05 14:14:20;;;;;;;;;;;27.10;98.30;;;;;;5046941;28;19912;-75
2022/09/05 14:16:50;;;;;;;;;;;27.30;98.30;;;;;;5047599;28;19909;-83
2022/09/05 14:22:05;;;;;;;;;;;27.30;98.30;;;;;;5042999;28;20287;-84
2022/09/05 14:24:36;;;;;;;;;;;27.00;98.90;;;;;;5049803;28;19913;-74
2022/09/05 14:27:12;;;;;;;;;;;27.00;99.10;;;;;;5058252;28;19940;-73
2022/09/05 14:29:38;;;;;;;;;;;27.00;99.10;;;;;;5054566;28;19913;-74
2022/09/05 14:32:13;;;;;;;;;;;26.90;99.60;;;;;;5054613;28;19970;-82
2022/09/05 14:34:39;;;;;;;;;;;27.00;99.60;;;;;;5054766;28;19955;-82
2022/09/05 14:37:17;;;;;;;;;;;26.90;99.80;;;;;;5054732;28;20420;-83
2022/09/05 14:40:11;;;;;;;;;;;27.20;99.60;;;;;;5049962;28;19909;-74
2022/09/05 14:42:51;;;;;;;;;;;27.40;99.40;;;;;;5053346;28;20283;-82
2022/09/05 14:45:16;;;;;;;;;;;26.90;99.90;;;;;;5042083;28;19928;-82
2022/09/05 14:47:44;;;;;;;;;;;27.00;99.90;;;;;;5058149;28;19967;-73
2022/09/05 14:50:28;;;;;;;;;;;26.80;99.80;;;;;;5063358;28;19924;-80
2022/09/05 14:53:17;;;;;;;;;;;27.00;99.80;;;;;;5043560;28;19916;-79
2022/09/05 14:55:58;;;;;;;;;;;27.00;99.70;;;;;;5049269;28;20007;-82
2022/09/05 14:58:25;;;;;;;;;;;26.70;99.90;;;;;;5053833;28;19919;-80
2022/09/05 15:00:56;;;;;;;;;;;26.90;99.90;;;;;;5046597;28;20304;-74